This is the latest recevied weather packets stored in our database for station/object GW1469. If no packets are shown the sender has not sent any weather packets the latest 10 day(s).
| Time | Temp. | Humidity | Pressure | Rain* | Wind** | Luminosity | Snow |
|---|---|---|---|---|---|---|---|
| 1777491380 | 20.56° C | 84% | 1019.9 hPa | 1.27 mm | - | - | - |
| 1777485267 | 22.22° C | 74% | 1019.9 hPa | 0 mm | - | - | - |
| 1777481669 | 18.89° C | 84% | 1021.3 hPa | 0 mm | - | - | - |
| 1777480578 | 19.44° C | 81% | 1021.6 hPa | 0 mm | - | - | - |
| 1777480229 | 19.44° C | 81% | 1021.6 hPa | 0 mm | - | - | - |
| 1777477711 | 19.44° C | 84% | 1022.3 hPa | 0 mm | - | - | - |
| 1777476262 | 19.44° C | 85% | 1022 hPa | 0 mm | - | - | - |
| 1777475927 | 19.44° C | 86% | 1022 hPa | 0 mm | - | - | - |
| 1777474460 | 18.33° C | 89% | 1022 hPa | 0 mm | - | - | - |
| 1777469810 | 17.78° C | 96% | 1022.3 hPa | 0 mm | - | - | - |
| 1777469074 | 17.22° C | 98% | 1022.3 hPa | 0 mm | - | - | - |
| 1777467288 | 16.11° C | 99% | 1022.3 hPa | 0 mm | - | - | - |
| 1777466905 | 16.11° C | 99% | 1022.3 hPa | 0 mm | - | - | - |
| 1777465467 | 16.11° C | 99% | 1022.3 hPa | 0 mm | - | - | - |
| 1777464765 | 15.56° C | 99% | 1022 hPa | 0 mm | - | - | - |
| 1777464394 | 15.56° C | 99% | 1022.6 hPa | 0 mm | - | - | - |
| 1777462581 | 15.56° C | 99% | 1022.3 hPa | 0 mm | - | - | - |
| 1777453241 | 15.56° C | 99% | 1022.6 hPa | 0 mm | - | - | - |
| 1777452889 | 15.56° C | 99% | 1022.6 hPa | 0 mm | - | - | - |
| 1777452153 | 15° C | 99% | 1023.3 hPa | 0 mm | - | - | - |
| 1777448568 | 15° C | 99% | 1023.3 hPa | 0 mm | - | - | - |
| 1777448179 | 15° C | 99% | 1023.3 hPa | 0 mm | - | - | - |
| 1777445669 | 15° C | 99% | 1024 hPa | 0 mm | - | - | - |
| 1777445331 | 15° C | 99% | 1023.7 hPa | 0 mm | - | - | - |
| 1777443879 | 15° C | 99% | 1023.7 hPa | 0 mm | - | - | - |
* Rain since midnight (hover to see other rain measurements)
** Current wind speed in m/s (hover to see current wind gust speed)